sensor_id;sensor_type;location;lat;lon;timestamp;P1;durP1;ratioP1;P2;durP2;ratioP2
60588;SDS011;46421;48.610;9.334;2023-11-21T00:00:46;3.55;;;1.20;;
60588;SDS011;46421;48.610;9.334;2023-11-21T00:03:12;5.85;;;1.58;;
60588;SDS011;46421;48.610;9.334;2023-11-21T00:05:40;5.88;;;1.50;;
60588;SDS011;46421;48.610;9.334;2023-11-21T00:08:06;4.45;;;1.10;;
60588;SDS011;46421;48.610;9.334;2023-11-21T00:10:32;3.83;;;1.17;;
60588;SDS011;46421;48.610;9.334;2023-11-21T00:12:57;7.80;;;1.50;;
60588;SDS011;46421;48.610;9.334;2023-11-21T00:15:22;3.53;;;1.07;;
60588;SDS011;46421;48.610;9.334;2023-11-21T00:17:48;6.47;;;1.27;;
60588;SDS011;46421;48.610;9.334;2023-11-21T00:20:13;7.10;;;1.40;;
60588;SDS011;46421;48.610;9.334;2023-11-21T00:22:38;3.42;;;1.10;;
60588;SDS011;46421;48.610;9.334;2023-11-21T00:25:05;3.70;;;1.20;;
60588;SDS011;46421;48.610;9.334;2023-11-21T00:27:31;7.07;;;1.38;;
60588;SDS011;46421;48.610;9.334;2023-11-21T00:29:56;4.60;;;1.40;;
60588;SDS011;46421;48.610;9.334;2023-11-21T00:32:21;3.88;;;1.15;;
60588;SDS011;46421;48.610;9.334;2023-11-21T00:34:47;5.13;;;1.37;;
60588;SDS011;46421;48.610;9.334;2023-11-21T00:37:12;3.17;;;1.00;;
60588;SDS011;46421;48.610;9.334;2023-11-21T00:39:37;3.70;;;1.13;;
60588;SDS011;46421;48.610;9.334;2023-11-21T00:42:05;5.28;;;1.10;;
60588;SDS011;46421;48.610;9.334;2023-11-21T00:44:30;3.65;;;1.05;;
60588;SDS011;46421;48.610;9.334;2023-11-21T00:46:55;5.40;;;1.17;;
60588;SDS011;46421;48.610;9.334;2023-11-21T00:49:21;2.50;;;1.02;;
60588;SDS011;46421;48.610;9.334;2023-11-21T00:51:46;2.95;;;0.90;;
60588;SDS011;46421;48.610;9.334;2023-11-21T00:54:12;3.83;;;1.25;;
60588;SDS011;46421;48.610;9.334;2023-11-21T00:56:37;5.13;;;1.00;;
60588;SDS011;46421;48.610;9.334;2023-11-21T00:59:02;3.03;;;0.83;;
60588;SDS011;46421;48.610;9.334;2023-11-21T01:01:30;2.35;;;0.98;;
60588;SDS011;46421;48.610;9.334;2023-11-21T01:03:55;2.53;;;0.83;;
60588;SDS011;46421;48.610;9.334;2023-11-21T01:06:20;2.70;;;0.70;;
60588;SDS011;46421;48.610;9.334;2023-11-21T01:08:46;1.40;;;0.50;;
60588;SDS011;46421;48.610;9.334;2023-11-21T01:11:11;3.10;;;0.70;;
60588;SDS011;46421;48.610;9.334;2023-11-21T01:13:37;4.32;;;0.95;;
60588;SDS011;46421;48.610;9.334;2023-11-21T01:16:06;3.42;;;0.75;;
60588;SDS011;46421;48.610;9.334;2023-11-21T01:18:32;2.00;;;0.60;;
60588;SDS011;46421;48.610;9.334;2023-11-21T01:20:57;4.10;;;0.98;;
60588;SDS011;46421;48.610;9.334;2023-11-21T01:23:23;1.83;;;0.60;;
60588;SDS011;46421;48.610;9.334;2023-11-21T01:25:48;1.30;;;0.70;;
60588;SDS011;46421;48.610;9.334;2023-11-21T01:28:14;1.63;;;0.52;;
60588;SDS011;46421;48.610;9.334;2023-11-21T01:30:39;3.63;;;0.60;;
60588;SDS011;46421;48.610;9.334;2023-11-21T01:33:05;3.15;;;0.60;;
60588;SDS011;46421;48.610;9.334;2023-11-21T01:35:30;2.75;;;0.93;;
60588;SDS011;46421;48.610;9.334;2023-11-21T01:37:55;2.17;;;0.80;;
60588;SDS011;46421;48.610;9.334;2023-11-21T01:40:21;2.53;;;0.83;;
60588;SDS011;46421;48.610;9.334;2023-11-21T01:42:46;4.95;;;1.33;;
60588;SDS011;46421;48.610;9.334;2023-11-21T01:45:12;3.15;;;1.20;;
60588;SDS011;46421;48.610;9.334;2023-11-21T01:47:37;2.83;;;0.75;;
60588;SDS011;46421;48.610;9.334;2023-11-21T01:50:03;2.45;;;0.68;;
60588;SDS011;46421;48.610;9.334;2023-11-21T01:52:31;3.50;;;0.80;;
60588;SDS011;46421;48.610;9.334;2023-11-21T01:54:57;1.80;;;0.63;;
60588;SDS011;46421;48.610;9.334;2023-11-21T01:57:23;4.13;;;0.88;;
60588;SDS011;46421;48.610;9.334;2023-11-21T01:59:48;2.43;;;0.80;;
60588;SDS011;46421;48.610;9.334;2023-11-21T02:02:15;4.03;;;0.70;;
60588;SDS011;46421;48.610;9.334;2023-11-21T02:04:41;3.95;;;0.88;;
60588;SDS011;46421;48.610;9.334;2023-11-21T02:07:06;4.60;;;0.80;;
60588;SDS011;46421;48.610;9.334;2023-11-21T02:09:32;3.88;;;0.60;;
60588;SDS011;46421;48.610;9.334;2023-11-21T02:11:58;3.05;;;0.70;;
60588;SDS011;46421;48.610;9.334;2023-11-21T02:14:27;2.83;;;0.60;;
60588;SDS011;46421;48.610;9.334;2023-11-21T02:16:56;2.95;;;0.75;;
60588;SDS011;46421;48.610;9.334;2023-11-21T02:19:26;1.92;;;0.55;;
60588;SDS011;46421;48.610;9.334;2023-11-21T02:21:52;2.90;;;0.65;;
60588;SDS011;46421;48.610;9.334;2023-11-21T02:24:21;2.00;;;1.05;;
60588;SDS011;46421;48.610;9.334;2023-11-21T02:26:47;1.90;;;0.70;;
60588;SDS011;46421;48.610;9.334;2023-11-21T02:29:12;1.67;;;0.60;;
60588;SDS011;46421;48.610;9.334;2023-11-21T02:31:38;3.95;;;1.00;;
60588;SDS011;46421;48.610;9.334;2023-11-21T02:34:13;2.28;;;0.70;;
60588;SDS011;46421;48.610;9.334;2023-11-21T02:36:42;2.08;;;0.68;;
60588;SDS011;46421;48.610;9.334;2023-11-21T02:39:08;1.55;;;0.52;;
60588;SDS011;46421;48.610;9.334;2023-11-21T02:41:34;1.27;;;0.52;;
60588;SDS011;46421;48.610;9.334;2023-11-21T02:43:59;2.00;;;0.60;;
60588;SDS011;46421;48.610;9.334;2023-11-21T02:46:25;3.35;;;0.57;;
60588;SDS011;46421;48.610;9.334;2023-11-21T02:48:50;1.43;;;0.50;;
60588;SDS011;46421;48.610;9.334;2023-11-21T02:51:16;1.70;;;0.60;;
60588;SDS011;46421;48.610;9.334;2023-11-21T02:53:41;2.75;;;0.70;;
60588;SDS011;46421;48.610;9.334;2023-11-21T02:56:06;2.10;;;0.60;;
60588;SDS011;46421;48.610;9.334;2023-11-21T02:58:32;1.88;;;0.60;;
60588;SDS011;46421;48.610;9.334;2023-11-21T03:00:57;1.83;;;0.50;;
60588;SDS011;46421;48.610;9.334;2023-11-21T03:03:23;1.37;;;0.40;;
60588;SDS011;46421;48.610;9.334;2023-11-21T03:05:49;2.20;;;0.52;;
60588;SDS011;46421;48.610;9.334;2023-11-21T03:08:15;1.70;;;0.52;;
60588;SDS011;46421;48.610;9.334;2023-11-21T03:10:40;1.47;;;0.57;;
60588;SDS011;46421;48.610;9.334;2023-11-21T03:13:05;4.47;;;0.60;;
60588;SDS011;46421;48.610;9.334;2023-11-21T03:15:30;3.63;;;0.77;;
60588;SDS011;46421;48.610;9.334;2023-11-21T03:17:57;1.42;;;0.55;;
60588;SDS011;46421;48.610;9.334;2023-11-21T03:20:22;0.43;;;0.20;;
60588;SDS011;46421;48.610;9.334;2023-11-21T03:22:48;5.27;;;0.80;;
60588;SDS011;46421;48.610;9.334;2023-11-21T03:25:13;0.70;;;0.40;;
60588;SDS011;46421;48.610;9.334;2023-11-21T03:27:38;0.73;;;0.25;;
60588;SDS011;46421;48.610;9.334;2023-11-21T03:30:04;1.00;;;0.30;;
60588;SDS011;46421;48.610;9.334;2023-11-21T03:32:32;2.17;;;0.45;;
60588;SDS011;46421;48.610;9.334;2023-11-21T03:34:58;1.58;;;0.40;;
60588;SDS011;46421;48.610;9.334;2023-11-21T03:37:24;0.90;;;0.38;;
60588;SDS011;46421;48.610;9.334;2023-11-21T03:39:52;0.60;;;0.28;;
60588;SDS011;46421;48.610;9.334;2023-11-21T03:42:17;2.03;;;0.43;;
60588;SDS011;46421;48.610;9.334;2023-11-21T03:44:43;0.85;;;0.38;;
60588;SDS011;46421;48.610;9.334;2023-11-21T03:47:08;0.93;;;0.40;;
60588;SDS011;46421;48.610;9.334;2023-11-21T03:49:33;1.52;;;0.30;;
60588;SDS011;46421;48.610;9.334;2023-11-21T03:51:59;0.93;;;0.50;;
60588;SDS011;46421;48.610;9.334;2023-11-21T03:54:24;0.60;;;0.20;;
60588;SDS011;46421;48.610;9.334;2023-11-21T03:56:49;0.87;;;0.50;;
60588;SDS011;46421;48.610;9.334;2023-11-21T03:59:15;0.73;;;0.30;;
60588;SDS011;46421;48.610;9.334;2023-11-21T04:01:40;1.15;;;0.30;;
60588;SDS011;46421;48.610;9.334;2023-11-21T04:04:05;1.37;;;0.40;;
60588;SDS011;46421;48.610;9.334;2023-11-21T04:06:31;0.70;;;0.20;;
60588;SDS011;46421;48.610;9.334;2023-11-21T04:08:57;1.10;;;0.32;;
60588;SDS011;46421;48.610;9.334;2023-11-21T04:11:23;0.93;;;0.30;;
60588;SDS011;46421;48.610;9.334;2023-11-21T04:13:48;1.50;;;0.20;;
60588;SDS011;46421;48.610;9.334;2023-11-21T04:16:13;0.93;;;0.50;;
60588;SDS011;46421;48.610;9.334;2023-11-21T04:18:39;0.45;;;0.30;;
60588;SDS011;46421;48.610;9.334;2023-11-21T04:21:05;0.30;;;0.28;;
60588;SDS011;46421;48.610;9.334;2023-11-21T04:23:30;1.17;;;0.28;;
60588;SDS011;46421;48.610;9.334;2023-11-21T04:25:57;0.40;;;0.30;;
60588;SDS011;46421;48.610;9.334;2023-11-21T04:28:23;1.38;;;0.22;;
60588;SDS011;46421;48.610;9.334;2023-11-21T04:30:49;1.38;;;0.30;;
60588;SDS011;46421;48.610;9.334;2023-11-21T04:33:15;1.75;;;0.30;;
60588;SDS011;46421;48.610;9.334;2023-11-21T04:35:41;1.50;;;0.30;;
60588;SDS011;46421;48.610;9.334;2023-11-21T04:38:06;2.10;;;0.50;;
60588;SDS011;46421;48.610;9.334;2023-11-21T04:40:32;0.32;;;0.20;;
60588;SDS011;46421;48.610;9.334;2023-11-21T04:42:57;1.75;;;0.50;;
60588;SDS011;46421;48.610;9.334;2023-11-21T04:45:22;0.83;;;0.30;;
60588;SDS011;46421;48.610;9.334;2023-11-21T04:47:48;2.33;;;0.60;;
60588;SDS011;46421;48.610;9.334;2023-11-21T04:50:13;1.13;;;0.40;;
60588;SDS011;46421;48.610;9.334;2023-11-21T04:52:38;0.20;;;0.20;;
60588;SDS011;46421;48.610;9.334;2023-11-21T04:55:04;0.93;;;0.40;;
60588;SDS011;46421;48.610;9.334;2023-11-21T04:57:31;1.83;;;0.30;;
60588;SDS011;46421;48.610;9.334;2023-11-21T04:59:57;0.90;;;0.30;;
60588;SDS011;46421;48.610;9.334;2023-11-21T05:02:22;1.08;;;0.28;;
60588;SDS011;46421;48.610;9.334;2023-11-21T05:04:47;0.37;;;0.17;;
60588;SDS011;46421;48.610;9.334;2023-11-21T05:07:13;0.82;;;0.30;;
60588;SDS011;46421;48.610;9.334;2023-11-21T05:09:44;1.77;;;0.43;;
60588;SDS011;46421;48.610;9.334;2023-11-21T05:12:11;1.17;;;0.25;;
60588;SDS011;46421;48.610;9.334;2023-11-21T05:14:37;0.52;;;0.20;;
60588;SDS011;46421;48.610;9.334;2023-11-21T05:17:02;1.13;;;0.60;;
60588;SDS011;46421;48.610;9.334;2023-11-21T05:19:29;1.27;;;0.55;;
60588;SDS011;46421;48.610;9.334;2023-11-21T05:21:54;0.33;;;0.10;;
60588;SDS011;46421;48.610;9.334;2023-11-21T05:24:20;0.25;;;0.10;;
60588;SDS011;46421;48.610;9.334;2023-11-21T05:26:45;1.17;;;0.20;;
60588;SDS011;46421;48.610;9.334;2023-11-21T05:29:10;0.20;;;0.20;;
60588;SDS011;46421;48.610;9.334;2023-11-21T05:31:36;0.57;;;0.30;;
60588;SDS011;46421;48.610;9.334;2023-11-21T05:34:01;0.52;;;0.20;;
60588;SDS011;46421;48.610;9.334;2023-11-21T05:36:27;1.48;;;0.17;;
60588;SDS011;46421;48.610;9.334;2023-11-21T05:38:52;0.30;;;0.20;;
60588;SDS011;46421;48.610;9.334;2023-11-21T05:41:17;1.10;;;0.30;;
60588;SDS011;46421;48.610;9.334;2023-11-21T05:43:43;0.70;;;0.27;;
60588;SDS011;46421;48.610;9.334;2023-11-21T05:46:08;1.15;;;0.35;;
60588;SDS011;46421;48.610;9.334;2023-11-21T05:48:34;0.35;;;0.10;;
60588;SDS011;46421;48.610;9.334;2023-11-21T05:51:02;0.98;;;0.22;;
60588;SDS011;46421;48.610;9.334;2023-11-21T05:53:29;1.05;;;0.25;;
60588;SDS011;46421;48.610;9.334;2023-11-21T05:55:55;2.15;;;0.45;;
60588;SDS011;46421;48.610;9.334;2023-11-21T05:58:20;2.20;;;0.40;;
60588;SDS011;46421;48.610;9.334;2023-11-21T06:00:46;1.30;;;0.30;;
60588;SDS011;46421;48.610;9.334;2023-11-21T06:03:11;0.77;;;0.30;;
60588;SDS011;46421;48.610;9.334;2023-11-21T06:05:37;0.52;;;0.28;;
60588;SDS011;46421;48.610;9.334;2023-11-21T06:08:02;1.03;;;0.40;;
60588;SDS011;46421;48.610;9.334;2023-11-21T06:10:28;1.70;;;0.32;;
60588;SDS011;46421;48.610;9.334;2023-11-21T06:12:53;0.60;;;0.23;;
60588;SDS011;46421;48.610;9.334;2023-11-21T06:15:19;1.83;;;0.50;;
60588;SDS011;46421;48.610;9.334;2023-11-21T06:17:46;0.68;;;0.30;;
60588;SDS011;46421;48.610;9.334;2023-11-21T06:20:14;0.95;;;0.20;;
60588;SDS011;46421;48.610;9.334;2023-11-21T06:22:43;2.38;;;0.40;;
60588;SDS011;46421;48.610;9.334;2023-11-21T06:25:10;0.85;;;0.30;;
60588;SDS011;46421;48.610;9.334;2023-11-21T06:27:38;0.45;;;0.30;;
60588;SDS011;46421;48.610;9.334;2023-11-21T06:30:04;0.77;;;0.30;;
60588;SDS011;46421;48.610;9.334;2023-11-21T06:32:31;1.08;;;0.40;;
60588;SDS011;46421;48.610;9.334;2023-11-21T06:34:57;1.45;;;0.40;;
60588;SDS011;46421;48.610;9.334;2023-11-21T06:37:25;0.57;;;0.22;;
60588;SDS011;46421;48.610;9.334;2023-11-21T06:39:51;0.98;;;0.40;;
60588;SDS011;46421;48.610;9.334;2023-11-21T06:42:17;0.30;;;0.20;;
60588;SDS011;46421;48.610;9.334;2023-11-21T06:47:09;0.43;;;0.20;;
60588;SDS011;46421;48.610;9.334;2023-11-21T06:49:35;1.85;;;0.32;;
60588;SDS011;46421;48.610;9.334;2023-11-21T06:52:01;1.92;;;0.65;;
60588;SDS011;46421;48.610;9.334;2023-11-21T06:54:28;0.75;;;0.30;;
60588;SDS011;46421;48.610;9.334;2023-11-21T06:56:53;1.47;;;0.40;;
60588;SDS011;46421;48.610;9.334;2023-11-21T06:59:18;1.97;;;0.43;;
60588;SDS011;46421;48.610;9.334;2023-11-21T07:01:43;1.00;;;0.43;;
60588;SDS011;46421;48.610;9.334;2023-11-21T07:04:09;0.90;;;0.30;;
60588;SDS011;46421;48.610;9.334;2023-11-21T07:06:34;2.42;;;0.45;;
60588;SDS011;46421;48.610;9.334;2023-11-21T07:09:00;0.97;;;0.33;;
60588;SDS011;46421;48.610;9.334;2023-11-21T07:11:26;1.52;;;0.40;;
60588;SDS011;46421;48.610;9.334;2023-11-21T07:13:52;1.33;;;0.50;;
60588;SDS011;46421;48.610;9.334;2023-11-21T07:16:17;1.23;;;0.50;;
60588;SDS011;46421;48.610;9.334;2023-11-21T07:18:43;2.13;;;0.40;;
60588;SDS011;46421;48.610;9.334;2023-11-21T07:21:09;0.95;;;0.40;;
60588;SDS011;46421;48.610;9.334;2023-11-21T07:23:36;1.85;;;0.50;;
60588;SDS011;46421;48.610;9.334;2023-11-21T07:26:02;0.73;;;0.30;;
60588;SDS011;46421;48.610;9.334;2023-11-21T07:28:28;2.88;;;0.32;;
60588;SDS011;46421;48.610;9.334;2023-11-21T07:30:54;1.58;;;0.57;;
60588;SDS011;46421;48.610;9.334;2023-11-21T07:33:19;0.90;;;0.40;;
60588;SDS011;46421;48.610;9.334;2023-11-21T07:35:46;0.80;;;0.35;;
60588;SDS011;46421;48.610;9.334;2023-11-21T07:38:11;2.33;;;0.50;;
60588;SDS011;46421;48.610;9.334;2023-11-21T07:40:37;1.37;;;0.63;;
60588;SDS011;46421;48.610;9.334;2023-11-21T07:43:02;0.90;;;0.40;;
60588;SDS011;46421;48.610;9.334;2023-11-21T07:45:27;2.67;;;0.50;;
60588;SDS011;46421;48.610;9.334;2023-11-21T07:47:53;1.75;;;0.65;;
60588;SDS011;46421;48.610;9.334;2023-11-21T07:50:19;1.08;;;0.52;;
60588;SDS011;46421;48.610;9.334;2023-11-21T07:52:45;1.63;;;0.65;;
60588;SDS011;46421;48.610;9.334;2023-11-21T07:55:11;0.95;;;0.47;;
60588;SDS011;46421;48.610;9.334;2023-11-21T07:57:36;1.77;;;0.77;;
60588;SDS011;46421;48.610;9.334;2023-11-21T08:00:02;2.20;;;0.70;;
60588;SDS011;46421;48.610;9.334;2023-11-21T08:02:31;1.83;;;0.50;;
60588;SDS011;46421;48.610;9.334;2023-11-21T08:04:56;1.52;;;0.70;;
60588;SDS011;46421;48.610;9.334;2023-11-21T08:07:22;0.87;;;0.43;;
60588;SDS011;46421;48.610;9.334;2023-11-21T08:09:47;1.67;;;0.60;;
60588;SDS011;46421;48.610;9.334;2023-11-21T08:12:15;1.88;;;0.70;;
60588;SDS011;46421;48.610;9.334;2023-11-21T08:14:40;1.98;;;0.60;;
60588;SDS011;46421;48.610;9.334;2023-11-21T08:17:05;1.73;;;0.77;;
60588;SDS011;46421;48.610;9.334;2023-11-21T08:19:31;1.75;;;0.50;;
60588;SDS011;46421;48.610;9.334;2023-11-21T08:21:58;2.40;;;0.60;;
60588;SDS011;46421;48.610;9.334;2023-11-21T08:24:24;2.42;;;0.90;;
60588;SDS011;46421;48.610;9.334;2023-11-21T08:26:49;2.25;;;0.65;;
60588;SDS011;46421;48.610;9.334;2023-11-21T08:29:16;1.38;;;0.68;;
60588;SDS011;46421;48.610;9.334;2023-11-21T08:31:41;2.90;;;1.00;;
60588;SDS011;46421;48.610;9.334;2023-11-21T08:34:07;2.88;;;0.60;;
60588;SDS011;46421;48.610;9.334;2023-11-21T08:36:33;1.52;;;0.70;;
60588;SDS011;46421;48.610;9.334;2023-11-21T08:38:59;2.22;;;0.77;;
60588;SDS011;46421;48.610;9.334;2023-11-21T08:41:24;1.20;;;0.60;;
60588;SDS011;46421;48.610;9.334;2023-11-21T08:43:50;4.50;;;0.90;;
60588;SDS011;46421;48.610;9.334;2023-11-21T08:46:15;2.55;;;0.80;;
60588;SDS011;46421;48.610;9.334;2023-11-21T08:48:42;1.13;;;0.52;;
60588;SDS011;46421;48.610;9.334;2023-11-21T08:51:09;0.60;;;0.50;;
60588;SDS011;46421;48.610;9.334;2023-11-21T08:53:36;3.38;;;1.00;;
60588;SDS011;46421;48.610;9.334;2023-11-21T08:56:02;1.50;;;0.60;;
60588;SDS011;46421;48.610;9.334;2023-11-21T08:58:29;1.73;;;0.68;;
60588;SDS011;46421;48.610;9.334;2023-11-21T09:00:55;0.98;;;0.50;;
60588;SDS011;46421;48.610;9.334;2023-11-21T09:03:21;1.75;;;0.82;;
60588;SDS011;46421;48.610;9.334;2023-11-21T09:05:46;1.80;;;0.50;;
60588;SDS011;46421;48.610;9.334;2023-11-21T09:08:11;2.43;;;0.90;;
60588;SDS011;46421;48.610;9.334;2023-11-21T09:10:37;3.40;;;0.70;;
60588;SDS011;46421;48.610;9.334;2023-11-21T09:13:02;1.90;;;0.73;;
60588;SDS011;46421;48.610;9.334;2023-11-21T09:15:28;1.02;;;0.60;;
60588;SDS011;46421;48.610;9.334;2023-11-21T09:17:53;0.90;;;0.60;;
60588;SDS011;46421;48.610;9.334;2023-11-21T09:20:19;1.75;;;0.80;;
60588;SDS011;46421;48.610;9.334;2023-11-21T09:22:47;2.53;;;0.90;;
60588;SDS011;46421;48.610;9.334;2023-11-21T09:25:13;2.00;;;0.75;;
60588;SDS011;46421;48.610;9.334;2023-11-21T09:27:38;1.50;;;0.67;;
60588;SDS011;46421;48.610;9.334;2023-11-21T09:30:04;2.60;;;0.80;;
60588;SDS011;46421;48.610;9.334;2023-11-21T09:32:30;1.42;;;0.77;;
60588;SDS011;46421;48.610;9.334;2023-11-21T09:34:56;2.00;;;0.73;;
60588;SDS011;46421;48.610;9.334;2023-11-21T09:37:23;1.83;;;0.70;;
60588;SDS011;46421;48.610;9.334;2023-11-21T09:39:49;2.83;;;0.88;;
60588;SDS011;46421;48.610;9.334;2023-11-21T09:42:32;1.23;;;0.57;;
60588;SDS011;46421;48.610;9.334;2023-11-21T09:47:48;2.00;;;0.77;;
60588;SDS011;46421;48.610;9.334;2023-11-21T09:50:16;1.90;;;0.73;;
60588;SDS011;46421;48.610;9.334;2023-11-21T09:53:29;1.85;;;0.75;;
60588;SDS011;46421;48.610;9.334;2023-11-21T09:55:35;2.38;;;0.70;;
60588;SDS011;46421;48.610;9.334;2023-11-21T09:58:02;2.63;;;0.60;;
60588;SDS011;46421;48.610;9.334;2023-11-21T10:00:28;1.35;;;0.60;;
60588;SDS011;46421;48.610;9.334;2023-11-21T10:02:57;2.25;;;0.70;;
60588;SDS011;46421;48.610;9.334;2023-11-21T10:05:23;1.80;;;0.77;;
60588;SDS011;46421;48.610;9.334;2023-11-21T10:07:52;1.17;;;0.40;;
60588;SDS011;46421;48.610;9.334;2023-11-21T10:10:19;1.35;;;0.75;;
60588;SDS011;46421;48.610;9.334;2023-11-21T10:12:48;1.48;;;0.70;;
60588;SDS011;46421;48.610;9.334;2023-11-21T10:15:18;0.98;;;0.50;;
60588;SDS011;46421;48.610;9.334;2023-11-21T10:17:46;1.15;;;0.60;;
60588;SDS011;46421;48.610;9.334;2023-11-21T10:20:14;2.20;;;0.68;;
60588;SDS011;46421;48.610;9.334;2023-11-21T10:22:40;2.15;;;0.50;;
60588;SDS011;46421;48.610;9.334;2023-11-21T10:27:33;1.80;;;0.32;;
60588;SDS011;46421;48.610;9.334;2023-11-21T10:30:00;1.55;;;0.80;;
60588;SDS011;46421;48.610;9.334;2023-11-21T10:32:28;3.30;;;0.55;;
60588;SDS011;46421;48.610;9.334;2023-11-21T10:34:57;2.75;;;0.70;;
60588;SDS011;46421;48.610;9.334;2023-11-21T10:37:22;2.17;;;0.50;;
60588;SDS011;46421;48.610;9.334;2023-11-21T10:39:48;1.67;;;0.47;;
60588;SDS011;46421;48.610;9.334;2023-11-21T10:42:14;5.47;;;0.60;;
60588;SDS011;46421;48.610;9.334;2023-11-21T10:44:41;0.30;;;0.30;;
60588;SDS011;46421;48.610;9.334;2023-11-21T10:47:09;1.50;;;0.50;;
60588;SDS011;46421;48.610;9.334;2023-11-21T10:49:36;2.03;;;0.43;;
60588;SDS011;46421;48.610;9.334;2023-11-21T10:52:02;1.73;;;0.50;;
60588;SDS011;46421;48.610;9.334;2023-11-21T10:54:29;1.30;;;0.50;;
60588;SDS011;46421;48.610;9.334;2023-11-21T10:56:57;2.30;;;0.50;;
60588;SDS011;46421;48.610;9.334;2023-11-21T10:59:30;2.15;;;0.60;;
60588;SDS011;46421;48.610;9.334;2023-11-21T11:01:57;1.83;;;0.60;;
60588;SDS011;46421;48.610;9.334;2023-11-21T11:04:23;1.20;;;0.30;;
60588;SDS011;46421;48.610;9.334;2023-11-21T11:09:22;1.20;;;0.40;;
60588;SDS011;46421;48.610;9.334;2023-11-21T11:11:48;0.93;;;0.40;;
60588;SDS011;46421;48.610;9.334;2023-11-21T11:14:14;2.03;;;0.40;;
60588;SDS011;46421;48.610;9.334;2023-11-21T11:16:40;1.02;;;0.38;;
60588;SDS011;46421;48.610;9.334;2023-11-21T11:19:06;1.15;;;0.40;;
60588;SDS011;46421;48.610;9.334;2023-11-21T11:21:53;0.63;;;0.38;;
60588;SDS011;46421;48.610;9.334;2023-11-21T11:32:24;0.90;;;0.50;;
60588;SDS011;46421;48.610;9.334;2023-11-21T11:35:07;0.90;;;0.40;;
60588;SDS011;46421;48.610;9.334;2023-11-21T11:37:35;2.08;;;0.65;;
60588;SDS011;46421;48.610;9.334;2023-11-21T11:40:01;1.85;;;0.60;;
60588;SDS011;46421;48.610;9.334;2023-11-21T11:42:32;1.02;;;0.50;;
60588;SDS011;46421;48.610;9.334;2023-11-21T11:44:57;1.40;;;0.60;;
60588;SDS011;46421;48.610;9.334;2023-11-21T11:47:29;2.47;;;0.65;;
60588;SDS011;46421;48.610;9.334;2023-11-21T11:50:05;4.20;;;1.05;;
60588;SDS011;46421;48.610;9.334;2023-11-21T11:52:37;2.20;;;0.70;;
60588;SDS011;46421;48.610;9.334;2023-11-21T11:55:07;1.15;;;0.63;;
60588;SDS011;46421;48.610;9.334;2023-11-21T11:57:43;2.30;;;0.70;;
60588;SDS011;46421;48.610;9.334;2023-11-21T12:00:09;2.58;;;0.52;;
60588;SDS011;46421;48.610;9.334;2023-11-21T12:02:36;0.80;;;0.50;;
60588;SDS011;46421;48.610;9.334;2023-11-21T12:05:07;1.38;;;0.60;;
60588;SDS011;46421;48.610;9.334;2023-11-21T12:07:43;1.92;;;0.68;;
60588;SDS011;46421;48.610;9.334;2023-11-21T12:10:13;1.50;;;0.60;;
60588;SDS011;46421;48.610;9.334;2023-11-21T12:12:43;1.50;;;0.50;;
60588;SDS011;46421;48.610;9.334;2023-11-21T12:15:11;1.88;;;0.75;;
60588;SDS011;46421;48.610;9.334;2023-11-21T12:17:38;2.95;;;0.80;;
60588;SDS011;46421;48.610;9.334;2023-11-21T12:20:04;2.58;;;1.00;;
60588;SDS011;46421;48.610;9.334;2023-11-21T12:22:31;2.17;;;0.80;;
60588;SDS011;46421;48.610;9.334;2023-11-21T12:24:56;3.20;;;0.73;;
60588;SDS011;46421;48.610;9.334;2023-11-21T12:27:22;2.73;;;1.00;;
60588;SDS011;46421;48.610;9.334;2023-11-21T12:29:47;2.63;;;0.90;;
60588;SDS011;46421;48.610;9.334;2023-11-21T12:32:12;1.10;;;0.57;;
60588;SDS011;46421;48.610;9.334;2023-11-21T12:34:40;2.35;;;0.70;;
60588;SDS011;46421;48.610;9.334;2023-11-21T12:37:05;1.95;;;0.80;;
60588;SDS011;46421;48.610;9.334;2023-11-21T12:39:31;2.63;;;0.77;;
60588;SDS011;46421;48.610;9.334;2023-11-21T12:41:56;2.17;;;0.87;;
60588;SDS011;46421;48.610;9.334;2023-11-21T12:44:22;2.28;;;0.90;;
60588;SDS011;46421;48.610;9.334;2023-11-21T12:46:48;1.92;;;0.60;;
60588;SDS011;46421;48.610;9.334;2023-11-21T12:49:15;2.92;;;0.80;;
60588;SDS011;46421;48.610;9.334;2023-11-21T12:51:43;2.50;;;1.00;;
60588;SDS011;46421;48.610;9.334;2023-11-21T12:54:09;1.85;;;0.75;;
60588;SDS011;46421;48.610;9.334;2023-11-21T12:56:38;1.53;;;0.60;;
60588;SDS011;46421;48.610;9.334;2023-11-21T12:59:04;2.30;;;0.75;;
60588;SDS011;46421;48.610;9.334;2023-11-21T13:01:30;1.60;;;0.70;;
60588;SDS011;46421;48.610;9.334;2023-11-21T13:03:57;4.97;;;1.38;;
60588;SDS011;46421;48.610;9.334;2023-11-21T13:06:23;3.28;;;1.20;;
60588;SDS011;46421;48.610;9.334;2023-11-21T13:08:51;2.00;;;0.80;;
60588;SDS011;46421;48.610;9.334;2023-11-21T13:11:17;1.17;;;0.32;;
60588;SDS011;46421;48.610;9.334;2023-11-21T13:13:42;1.67;;;0.60;;
60588;SDS011;46421;48.610;9.334;2023-11-21T13:16:11;2.95;;;0.60;;
60588;SDS011;46421;48.610;9.334;2023-11-21T13:18:36;1.70;;;0.70;;
60588;SDS011;46421;48.610;9.334;2023-11-21T13:21:03;1.23;;;0.47;;
60588;SDS011;46421;48.610;9.334;2023-11-21T13:23:40;1.88;;;0.52;;
60588;SDS011;46421;48.610;9.334;2023-11-21T13:26:07;0.73;;;0.47;;
60588;SDS011;46421;48.610;9.334;2023-11-21T13:28:33;0.77;;;0.50;;
60588;SDS011;46421;48.610;9.334;2023-11-21T13:31:00;0.60;;;0.40;;
60588;SDS011;46421;48.610;9.334;2023-11-21T13:33:37;0.95;;;0.43;;
60588;SDS011;46421;48.610;9.334;2023-11-21T13:36:07;1.38;;;0.50;;
60588;SDS011;46421;48.610;9.334;2023-11-21T13:38:34;2.13;;;0.50;;
60588;SDS011;46421;48.610;9.334;2023-11-21T13:41:00;2.08;;;0.57;;
60588;SDS011;46421;48.610;9.334;2023-11-21T13:43:26;0.40;;;0.25;;
60588;SDS011;46421;48.610;9.334;2023-11-21T13:45:53;3.17;;;0.57;;
60588;SDS011;46421;48.610;9.334;2023-11-21T13:48:28;1.38;;;0.60;;
60588;SDS011;46421;48.610;9.334;2023-11-21T13:51:04;1.95;;;0.60;;
60588;SDS011;46421;48.610;9.334;2023-11-21T13:53:48;1.63;;;0.60;;
60588;SDS011;46421;48.610;9.334;2023-11-21T13:56:15;2.08;;;0.88;;
60588;SDS011;46421;48.610;9.334;2023-11-21T13:58:44;1.77;;;0.70;;
60588;SDS011;46421;48.610;9.334;2023-11-21T14:01:15;1.40;;;0.50;;
60588;SDS011;46421;48.610;9.334;2023-11-21T14:04:10;2.50;;;0.70;;
60588;SDS011;46421;48.610;9.334;2023-11-21T14:06:42;1.60;;;0.75;;
60588;SDS011;46421;48.610;9.334;2023-11-21T14:09:14;1.00;;;0.47;;
60588;SDS011;46421;48.610;9.334;2023-11-21T14:11:47;3.22;;;0.50;;
60588;SDS011;46421;48.610;9.334;2023-11-21T14:16:39;1.77;;;0.63;;
60588;SDS011;46421;48.610;9.334;2023-11-21T14:19:05;2.47;;;0.88;;
60588;SDS011;46421;48.610;9.334;2023-11-21T14:21:41;2.65;;;0.70;;
60588;SDS011;46421;48.610;9.334;2023-11-21T14:24:10;1.55;;;0.63;;
60588;SDS011;46421;48.610;9.334;2023-11-21T14:26:38;2.65;;;0.75;;
60588;SDS011;46421;48.610;9.334;2023-11-21T14:29:08;0.88;;;0.47;;
60588;SDS011;46421;48.610;9.334;2023-11-21T14:31:34;2.38;;;0.70;;
60588;SDS011;46421;48.610;9.334;2023-11-21T14:34:00;2.75;;;0.90;;
60588;SDS011;46421;48.610;9.334;2023-11-21T14:36:31;3.20;;;0.98;;
60588;SDS011;46421;48.610;9.334;2023-11-21T14:38:56;2.40;;;0.98;;
60588;SDS011;46421;48.610;9.334;2023-11-21T14:41:22;3.43;;;1.30;;
60588;SDS011;46421;48.610;9.334;2023-11-21T14:43:47;5.50;;;1.17;;
60588;SDS011;46421;48.610;9.334;2023-11-21T14:46:14;3.70;;;1.20;;
60588;SDS011;46421;48.610;9.334;2023-11-21T14:48:42;3.15;;;1.15;;
60588;SDS011;46421;48.610;9.334;2023-11-21T14:51:10;4.77;;;1.30;;
60588;SDS011;46421;48.610;9.334;2023-11-21T14:53:57;2.90;;;1.17;;
60588;SDS011;46421;48.610;9.334;2023-11-21T14:56:30;3.40;;;1.40;;
60588;SDS011;46421;48.610;9.334;2023-11-21T14:58:58;3.55;;;1.20;;
60588;SDS011;46421;48.610;9.334;2023-11-21T15:01:41;2.90;;;1.15;;
60588;SDS011;46421;48.610;9.334;2023-11-21T15:04:20;3.72;;;1.05;;
60588;SDS011;46421;48.610;9.334;2023-11-21T15:06:59;3.00;;;1.23;;